sensor_id;sensor_type;location;lat;lon;timestamp;temperature;humidity
76838;DHT22;65797;47.352;8.164;2023-07-28T00:01:32;16.80;1.00
76838;DHT22;65797;47.352;8.164;2023-07-28T00:03:58;16.70;99.90
76838;DHT22;65797;47.352;8.164;2023-07-28T00:06:24;16.70;99.90
76838;DHT22;65797;47.352;8.164;2023-07-28T00:08:49;16.70;1.00
76838;DHT22;65797;47.352;8.164;2023-07-28T00:11:16;16.70;1.00
76838;DHT22;65797;47.352;8.164;2023-07-28T00:13:42;16.60;1.00
76838;DHT22;65797;47.352;8.164;2023-07-28T00:16:09;16.60;1.00
76838;DHT22;65797;47.352;8.164;2023-07-28T00:18:35;16.60;1.00
76838;DHT22;65797;47.352;8.164;2023-07-28T00:21:01;16.60;99.90
76838;DHT22;65797;47.352;8.164;2023-07-28T00:23:28;16.60;99.90
76838;DHT22;65797;47.352;8.164;2023-07-28T00:25:53;16.60;1.00
76838;DHT22;65797;47.352;8.164;2023-07-28T00:28:19;16.70;1.00
76838;DHT22;65797;47.352;8.164;2023-07-28T00:30:49;16.70;1.00
76838;DHT22;65797;47.352;8.164;2023-07-28T00:33:15;16.70;1.00
76838;DHT22;65797;47.352;8.164;2023-07-28T00:35:41;16.80;1.00
76838;DHT22;65797;47.352;8.164;2023-07-28T00:38:07;16.80;1.00
76838;DHT22;65797;47.352;8.164;2023-07-28T00:40:33;16.80;1.00
76838;DHT22;65797;47.352;8.164;2023-07-28T00:42:58;16.70;1.80
76838;DHT22;65797;47.352;8.164;2023-07-28T00:45:24;16.70;99.90
76838;DHT22;65797;47.352;8.164;2023-07-28T00:47:50;16.70;31.20
76838;DHT22;65797;47.352;8.164;2023-07-28T00:50:16;16.70;1.20
76838;DHT22;65797;47.352;8.164;2023-07-28T00:52:42;16.60;2.30
76838;DHT22;65797;47.352;8.164;2023-07-28T00:55:08;16.60;99.90
76838;DHT22;65797;47.352;8.164;2023-07-28T00:57:34;16.60;99.90
76838;DHT22;65797;47.352;8.164;2023-07-28T01:00:00;16.50;99.90
76838;DHT22;65797;47.352;8.164;2023-07-28T01:26:05;16.30;99.90
76838;DHT22;65797;47.352;8.164;2023-07-28T01:41:30;16.30;99.90
76838;DHT22;65797;47.352;8.164;2023-07-28T01:43:55;16.30;99.90
76838;DHT22;65797;47.352;8.164;2023-07-28T01:46:22;16.30;1.00
76838;DHT22;65797;47.352;8.164;2023-07-28T01:53:58;16.30;1.00
76838;DHT22;65797;47.352;8.164;2023-07-28T01:56:24;16.40;1.00
76838;DHT22;65797;47.352;8.164;2023-07-28T01:58:49;16.40;1.00
76838;DHT22;65797;47.352;8.164;2023-07-28T02:01:15;16.40;1.00
76838;DHT22;65797;47.352;8.164;2023-07-28T02:03:41;16.40;99.90
76838;DHT22;65797;47.352;8.164;2023-07-28T02:06:06;16.40;99.90
76838;DHT22;65797;47.352;8.164;2023-07-28T02:08:32;16.50;99.90
76838;DHT22;65797;47.352;8.164;2023-07-28T02:10:58;16.50;1.00
76838;DHT22;65797;47.352;8.164;2023-07-28T02:13:23;16.50;1.00
76838;DHT22;65797;47.352;8.164;2023-07-28T08:20:01;27.10;99.90
76838;DHT22;65797;47.352;8.164;2023-07-28T08:22:27;27.10;99.90
76838;DHT22;65797;47.352;8.164;2023-07-28T08:24:53;27.10;99.90
76838;DHT22;65797;47.352;8.164;2023-07-28T08:27:19;26.70;99.90
76838;DHT22;65797;47.352;8.164;2023-07-28T08:29:44;26.60;99.90
76838;DHT22;65797;47.352;8.164;2023-07-28T08:32:10;26.90;99.90
76838;DHT22;65797;47.352;8.164;2023-07-28T08:34:37;26.50;99.90
76838;DHT22;65797;47.352;8.164;2023-07-28T08:37:02;26.40;99.90
76838;DHT22;65797;47.352;8.164;2023-07-28T08:39:28;26.70;99.90
76838;DHT22;65797;47.352;8.164;2023-07-28T08:42:01;26.60;99.90
76838;DHT22;65797;47.352;8.164;2023-07-28T08:44:31;26.60;99.90
76838;DHT22;65797;47.352;8.164;2023-07-28T08:46:57;26.90;99.90
76838;DHT22;65797;47.352;8.164;2023-07-28T08:49:23;26.60;99.90
76838;DHT22;65797;47.352;8.164;2023-07-28T08:51:50;26.20;99.90
76838;DHT22;65797;47.352;8.164;2023-07-28T08:54:16;26.60;99.90
76838;DHT22;65797;47.352;8.164;2023-07-28T08:56:43;26.80;99.90
76838;DHT22;65797;47.352;8.164;2023-07-28T08:59:09;26.80;99.90
76838;DHT22;65797;47.352;8.164;2023-07-28T09:01:39;26.70;99.90
76838;DHT22;65797;47.352;8.164;2023-07-28T09:04:10;26.80;99.90
76838;DHT22;65797;47.352;8.164;2023-07-28T09:06:36;26.70;99.90
76838;DHT22;65797;47.352;8.164;2023-07-28T09:09:06;26.70;99.90
76838;DHT22;65797;47.352;8.164;2023-07-28T09:11:32;26.70;99.90
76838;DHT22;65797;47.352;8.164;2023-07-28T09:14:00;26.50;99.90
76838;DHT22;65797;47.352;8.164;2023-07-28T09:16:26;27.00;99.90
76838;DHT22;65797;47.352;8.164;2023-07-28T09:19:07;26.90;99.90
76838;DHT22;65797;47.352;8.164;2023-07-28T09:21:33;27.30;99.90
76838;DHT22;65797;47.352;8.164;2023-07-28T09:24:06;27.60;99.90
76838;DHT22;65797;47.352;8.164;2023-07-28T09:26:45;27.80;99.90
76838;DHT22;65797;47.352;8.164;2023-07-28T09:29:15;27.20;99.90
76838;DHT22;65797;47.352;8.164;2023-07-28T09:31:42;27.10;99.90
76838;DHT22;65797;47.352;8.164;2023-07-28T09:34:09;27.50;99.90
76838;DHT22;65797;47.352;8.164;2023-07-28T09:36:35;27.10;99.90
76838;DHT22;65797;47.352;8.164;2023-07-28T09:39:02;27.40;99.90
76838;DHT22;65797;47.352;8.164;2023-07-28T09:41:29;27.40;99.90
76838;DHT22;65797;47.352;8.164;2023-07-28T09:43:56;27.50;99.90
76838;DHT22;65797;47.352;8.164;2023-07-28T09:46:23;27.90;99.90
76838;DHT22;65797;47.352;8.164;2023-07-28T09:48:52;28.00;99.90
76838;DHT22;65797;47.352;8.164;2023-07-28T09:51:21;27.80;99.90
76838;DHT22;65797;47.352;8.164;2023-07-28T09:53:58;27.70;99.90
76838;DHT22;65797;47.352;8.164;2023-07-28T09:56:27;28.10;99.90
76838;DHT22;65797;47.352;8.164;2023-07-28T09:58:56;27.90;99.90
76838;DHT22;65797;47.352;8.164;2023-07-28T10:01:23;28.20;99.90
76838;DHT22;65797;47.352;8.164;2023-07-28T10:03:50;28.30;99.90
76838;DHT22;65797;47.352;8.164;2023-07-28T10:06:17;28.10;99.90
76838;DHT22;65797;47.352;8.164;2023-07-28T10:08:44;28.20;99.90
76838;DHT22;65797;47.352;8.164;2023-07-28T10:11:15;28.30;99.90
76838;DHT22;65797;47.352;8.164;2023-07-28T10:13:43;28.40;99.90
76838;DHT22;65797;47.352;8.164;2023-07-28T10:37:58;28.10;99.90
76838;DHT22;65797;47.352;8.164;2023-07-28T10:42:59;27.60;96.20
76838;DHT22;65797;47.352;8.164;2023-07-28T10:45:26;27.70;96.10
76838;DHT22;65797;47.352;8.164;2023-07-28T10:47:53;27.40;94.80
76838;DHT22;65797;47.352;8.164;2023-07-28T11:50:04;28.20;95.80
76838;DHT22;65797;47.352;8.164;2023-07-28T11:52:34;27.90;93.90
76838;DHT22;65797;47.352;8.164;2023-07-28T11:55:02;27.90;94.00
76838;DHT22;65797;47.352;8.164;2023-07-28T11:57:30;27.90;94.00
76838;DHT22;65797;47.352;8.164;2023-07-28T12:00:03;28.20;95.30
76838;DHT22;65797;47.352;8.164;2023-07-28T12:02:31;28.40;96.50
76838;DHT22;65797;47.352;8.164;2023-07-28T12:04:59;28.40;96.70
76838;DHT22;65797;47.352;8.164;2023-07-28T12:07:30;28.10;95.20
76838;DHT22;65797;47.352;8.164;2023-07-28T12:09:56;27.90;94.80
76838;DHT22;65797;47.352;8.164;2023-07-28T12:12:28;27.80;93.80
76838;DHT22;65797;47.352;8.164;2023-07-28T12:14:55;27.70;93.70
76838;DHT22;65797;47.352;8.164;2023-07-28T12:17:22;27.60;93.10
76838;DHT22;65797;47.352;8.164;2023-07-28T12:19:57;27.80;94.80
76838;DHT22;65797;47.352;8.164;2023-07-28T12:22:22;28.00;94.50
76838;DHT22;65797;47.352;8.164;2023-07-28T12:24:48;28.00;95.00
76838;DHT22;65797;47.352;8.164;2023-07-28T12:27:14;28.10;95.40
76838;DHT22;65797;47.352;8.164;2023-07-28T12:29:41;28.20;96.10
76838;DHT22;65797;47.352;8.164;2023-07-28T12:32:07;28.00;95.60
76838;DHT22;65797;47.352;8.164;2023-07-28T12:34:33;28.10;97.10
76838;DHT22;65797;47.352;8.164;2023-07-28T12:36:59;28.20;97.60
76838;DHT22;65797;47.352;8.164;2023-07-28T12:39:25;28.10;95.80
76838;DHT22;65797;47.352;8.164;2023-07-28T12:41:50;28.10;96.30
76838;DHT22;65797;47.352;8.164;2023-07-28T12:44:19;28.10;96.90
76838;DHT22;65797;47.352;8.164;2023-07-28T12:46:45;28.30;97.70
76838;DHT22;65797;47.352;8.164;2023-07-28T12:49:11;28.00;97.00
76838;DHT22;65797;47.352;8.164;2023-07-28T12:51:37;27.90;95.60
76838;DHT22;65797;47.352;8.164;2023-07-28T12:54:03;27.70;94.20
76838;DHT22;65797;47.352;8.164;2023-07-28T12:56:29;27.40;94.40
76838;DHT22;65797;47.352;8.164;2023-07-28T12:58:55;27.70;94.10
76838;DHT22;65797;47.352;8.164;2023-07-28T13:01:21;27.70;94.50
76838;DHT22;65797;47.352;8.164;2023-07-28T13:03:46;27.60;94.60
76838;DHT22;65797;47.352;8.164;2023-07-28T13:06:12;27.60;95.30
76838;DHT22;65797;47.352;8.164;2023-07-28T14:13:31;24.60;99.90
76838;DHT22;65797;47.352;8.164;2023-07-28T14:15:58;24.00;99.90
76838;DHT22;65797;47.352;8.164;2023-07-28T14:18:24;24.00;99.90
76838;DHT22;65797;47.352;8.164;2023-07-28T17:41:13;20.50;1.00
76838;DHT22;65797;47.352;8.164;2023-07-28T17:51:26;20.60;1.00
76838;DHT22;65797;47.352;8.164;2023-07-28T17:53:52;20.70;99.90
76838;DHT22;65797;47.352;8.164;2023-07-28T17:56:18;20.70;26.60
76838;DHT22;65797;47.352;8.164;2023-07-28T17:58:43;20.60;99.90
76838;DHT22;65797;47.352;8.164;2023-07-28T18:01:09;20.50;1.00
76838;DHT22;65797;47.352;8.164;2023-07-28T18:03:35;20.50;4.10
76838;DHT22;65797;47.352;8.164;2023-07-28T18:06:01;20.50;61.30
76838;DHT22;65797;47.352;8.164;2023-07-28T18:08:28;20.50;1.00
76838;DHT22;65797;47.352;8.164;2023-07-28T18:10:55;20.50;1.00
76838;DHT22;65797;47.352;8.164;2023-07-28T18:13:21;20.40;1.00
76838;DHT22;65797;47.352;8.164;2023-07-28T18:15:46;20.50;99.90
76838;DHT22;65797;47.352;8.164;2023-07-28T18:18:13;20.50;99.90
76838;DHT22;65797;47.352;8.164;2023-07-28T18:20:39;20.50;99.90
76838;DHT22;65797;47.352;8.164;2023-07-28T18:23:05;20.50;99.90
76838;DHT22;65797;47.352;8.164;2023-07-28T18:25:30;20.50;1.00
76838;DHT22;65797;47.352;8.164;2023-07-28T18:27:56;20.50;99.90
76838;DHT22;65797;47.352;8.164;2023-07-28T18:30:22;20.50;99.90
76838;DHT22;65797;47.352;8.164;2023-07-28T18:32:48;20.50;99.90
76838;DHT22;65797;47.352;8.164;2023-07-28T18:35:14;20.50;99.90
76838;DHT22;65797;47.352;8.164;2023-07-28T18:37:40;20.50;1.00
76838;DHT22;65797;47.352;8.164;2023-07-28T18:40:06;20.40;1.00
76838;DHT22;65797;47.352;8.164;2023-07-28T18:42:34;20.40;99.90
76838;DHT22;65797;47.352;8.164;2023-07-28T18:44:59;20.30;37.20
76838;DHT22;65797;47.352;8.164;2023-07-28T18:47:25;20.10;99.90
76838;DHT22;65797;47.352;8.164;2023-07-28T18:49:51;20.10;99.90
76838;DHT22;65797;47.352;8.164;2023-07-28T18:52:17;20.20;1.00
76838;DHT22;65797;47.352;8.164;2023-07-28T18:54:43;20.10;1.00
76838;DHT22;65797;47.352;8.164;2023-07-28T18:57:08;20.10;1.00
76838;DHT22;65797;47.352;8.164;2023-07-28T18:59:34;20.10;1.00
76838;DHT22;65797;47.352;8.164;2023-07-28T19:02:00;20.10;1.00
76838;DHT22;65797;47.352;8.164;2023-07-28T19:04:26;20.10;1.00
76838;DHT22;65797;47.352;8.164;2023-07-28T19:06:52;20.00;1.00
76838;DHT22;65797;47.352;8.164;2023-07-28T19:09:18;20.00;1.00
76838;DHT22;65797;47.352;8.164;2023-07-28T19:11:44;20.00;1.00
76838;DHT22;65797;47.352;8.164;2023-07-28T19:16:46;20.00;1.00
76838;DHT22;65797;47.352;8.164;2023-07-28T19:19:11;20.10;1.00
76838;DHT22;65797;47.352;8.164;2023-07-28T19:31:58;19.90;1.00
